Time;durP1;ratioP1;P1;durP2;ratioP2;P2;SDS_P1;SDS_P2;PMS_P1;PMS_P2;Temp;Humidity;BMP_temperature;BMP_pressure;BME280_temperature;BME280_humidity;BME280_pressure;Samples;Min_cycle;Max_cycle;Signal;HPM_P1;HPM_P2
2022/03/28 00:01:13;;;;;;;11.27;8.30;;;;;;;5.69;68.06;102052.13;7394340;19;20022;-63
2022/03/28 00:03:41;;;;;;;13.73;8.98;;;;;;;5.66;68.51;102048.59;7394151;19;20022;-64
2022/03/28 00:06:10;;;;;;;11.75;8.38;;;;;;;5.64;68.62;102048.56;7391752;19;20481;-64
2022/03/28 00:08:38;;;;;;;10.60;8.43;;;;;;;5.59;68.68;102042.38;7391541;19;20481;-64
2022/03/28 00:11:13;;;;;;;11.77;8.77;;;;;;;5.55;69.40;102041.44;7393936;19;20039;-64
2022/03/28 00:13:43;;;;;;;14.45;8.98;;;;;;;5.52;69.42;102040.50;7391463;19;20388;-64
2022/03/28 00:16:12;;;;;;;12.15;9.23;;;;;;;5.50;69.59;102037.88;7396106;19;20427;-63
2022/03/28 00:18:40;;;;;;;11.50;8.85;;;;;;;5.46;69.38;102030.84;7398469;19;20022;-63
2022/03/28 00:21:08;;;;;;;10.95;8.77;;;;;;;5.46;69.81;102038.66;7398580;19;20027;-64
2022/03/28 00:23:36;;;;;;;12.88;9.43;;;;;;;5.46;69.97;102032.56;7398216;19;20481;-64
2022/03/28 00:26:05;;;;;;;12.10;9.38;;;;;;;5.43;69.74;102019.50;7398399;19;20031;-64
2022/03/28 00:28:33;;;;;;;14.13;9.70;;;;;;;5.41;70.13;102024.69;7399353;19;20494;-64
2022/03/28 00:31:03;;;;;;;12.60;9.45;;;;;;;5.39;70.05;102026.38;7400850;19;20045;-65
2022/03/28 00:33:32;;;;;;;15.82;10.40;;;;;;;5.37;70.21;102033.25;7400925;19;20091;-64
2022/03/28 00:36:00;;;;;;;13.23;10.10;;;;;;;5.34;70.31;102018.44;7400734;19;20023;-64
2022/03/28 00:38:28;;;;;;;11.98;9.85;;;;;;;5.32;70.34;102021.88;7397914;19;20031;-64
2022/03/28 00:40:56;;;;;;;13.82;9.88;;;;;;;5.31;70.25;102021.00;7400450;19;20506;-65
2022/03/28 00:43:24;;;;;;;11.52;9.23;;;;;;;5.30;70.19;102021.84;7397959;19;20014;-64
2022/03/28 00:45:52;;;;;;;11.93;9.88;;;;;;;5.28;70.45;102012.25;7400392;19;20039;-64
2022/03/28 00:48:26;;;;;;;13.50;10.70;;;;;;;5.27;70.49;102005.28;7398751;19;20026;-64
2022/03/28 00:50:56;;;;;;;16.00;11.38;;;;;;;5.24;71.00;101997.44;7400537;19;20019;-64
2022/03/28 00:53:26;;;;;;;14.43;9.85;;;;;;;5.19;70.95;101995.63;7400522;19;20018;-64
2022/03/28 00:55:55;;;;;;;12.85;10.38;;;;;;;5.17;71.23;102001.66;7397592;19;20015;-64
2022/03/28 00:58:24;;;;;;;12.27;10.35;;;;;;;5.13;71.74;101992.00;7397350;19;20015;-64
2022/03/28 01:00:52;;;;;;;17.45;10.13;;;;;;;5.11;71.70;101988.50;7399520;19;20502;-64
2022/03/28 01:03:23;;;;;;;17.48;12.55;;;;;;;5.08;72.83;101993.63;7397633;19;20041;-64
2022/03/28 01:05:52;;;;;;;14.25;11.23;;;;;;;5.06;72.12;101991.88;7400336;19;20023;-64
2022/03/28 01:08:20;;;;;;;15.02;11.48;;;;;;;5.03;72.45;101983.13;7397123;19;20018;-64
2022/03/28 01:10:52;;;;;;;16.08;11.27;;;;;;;4.99;72.78;101987.41;7399520;19;20018;-64
2022/03/28 01:13:21;;;;;;;16.42;11.55;;;;;;;4.96;73.00;101982.13;7398998;19;20022;-64
2022/03/28 01:15:49;;;;;;;16.15;11.75;;;;;;;4.93;72.57;101981.16;7399306;19;20018;-64
2022/03/28 01:18:15;;;;;;;15.50;11.32;;;;;;;4.89;72.94;101978.50;7398218;19;20027;-64
2022/03/28 01:20:45;;;;;;;15.02;10.98;;;;;;;4.87;72.54;101974.13;7399182;19;20019;-64
2022/03/28 01:23:17;;;;;;;16.95;11.52;;;;;;;4.86;72.67;101970.63;7397111;19;20035;-64
2022/03/28 01:25:48;;;;;;;15.50;11.85;;;;;;;4.87;72.65;101968.94;7396414;19;20022;-64
2022/03/28 01:28:16;;;;;;;19.08;12.65;;;;;;;4.87;72.46;101963.72;7398308;19;20018;-63
2022/03/28 01:30:44;;;;;;;16.63;10.65;;;;;;;4.87;72.44;101956.78;7398864;19;20022;-65
2022/03/28 01:33:12;;;;;;;15.80;11.50;;;;;;;4.88;72.11;101955.94;7398404;19;20439;-63
2022/03/28 01:35:43;;;;;;;14.93;10.77;;;;;;;4.88;72.28;101957.69;7396568;19;20022;-63
2022/03/28 01:38:13;;;;;;;18.52;11.80;;;;;;;4.89;72.41;101955.09;7398075;19;20011;-64
2022/03/28 01:40:48;;;;;;;17.73;12.02;;;;;;;4.90;72.78;101958.56;7398494;19;20089;-64
2022/03/28 01:43:16;;;;;;;16.98;12.57;;;;;;;4.89;72.32;101955.09;7396526;19;20031;-64
2022/03/28 01:45:45;;;;;;;18.73;11.88;;;;;;;4.88;72.38;101949.88;7398426;19;20035;-64
2022/03/28 01:48:15;;;;;;;16.60;11.57;;;;;;;4.85;72.73;101945.50;7395978;19;20019;-65
2022/03/28 01:50:43;;;;;;;15.98;11.57;;;;;;;4.85;72.70;101944.59;7396303;19;20018;-64
2022/03/28 01:53:11;;;;;;;16.33;11.00;;;;;;;4.84;72.57;101942.84;7396031;19;20022;-64
2022/03/28 01:55:39;;;;;;;16.23;11.73;;;;;;;4.84;72.61;101932.44;7396125;19;20018;-64
2022/03/28 01:58:11;;;;;;;18.75;12.05;;;;;;;4.83;72.75;101938.50;7397107;19;20018;-64
2022/03/28 02:00:39;;;;;;;16.27;12.35;;;;;;;4.81;72.83;101922.00;7395968;19;20018;-64
2022/03/28 02:03:07;;;;;;;19.05;12.75;;;;;;;4.79;72.82;101934.06;7396453;19;20382;-64
2022/03/28 02:05:35;;;;;;;19.25;11.40;;;;;;;4.79;72.82;101932.38;7395782;19;20018;-62
2022/03/28 02:08:04;;;;;;;16.48;12.15;;;;;;;4.77;73.07;101931.44;7395169;19;20018;-63
2022/03/28 02:10:32;;;;;;;16.73;11.90;;;;;;;4.75;73.12;101924.44;7396286;19;20022;-65
2022/03/28 02:13:00;;;;;;;17.05;12.45;;;;;;;4.72;73.00;101915.72;7396696;19;20045;-65
2022/03/28 02:15:31;;;;;;;17.48;11.68;;;;;;;4.71;73.00;101924.41;7396498;19;20018;-64
2022/03/28 02:18:00;;;;;;;17.13;11.30;;;;;;;4.69;73.02;101925.22;7396603;19;20019;-64
2022/03/28 02:20:28;;;;;;;18.27;13.10;;;;;;;4.68;73.16;101923.44;7397095;19;20039;-64
2022/03/28 02:22:57;;;;;;;18.00;12.63;;;;;;;4.65;73.16;101924.28;7396032;19;20014;-64
2022/03/28 02:25:25;;;;;;;19.48;11.80;;;;;;;4.64;73.23;101925.09;7396995;19;20015;-63
2022/03/28 02:27:53;;;;;;;19.13;12.95;;;;;;;4.62;73.58;101920.72;7396364;19;20035;-65
2022/03/28 02:30:21;;;;;;;20.85;13.00;;;;;;;4.61;73.56;101919.81;7394975;19;20018;-64
2022/03/28 02:32:52;;;;;;;18.70;13.65;;;;;;;4.58;73.57;101914.56;7394795;19;20018;-64
2022/03/28 02:35:20;;;;;;;18.88;12.63;;;;;;;4.57;73.67;101918.00;7396876;19;20035;-64
2022/03/28 02:37:48;;;;;;;17.88;12.13;;;;;;;4.55;73.84;101911.91;7394053;19;20036;-64
2022/03/28 02:40:17;;;;;;;18.60;12.57;;;;;;;4.51;73.89;101917.88;7394797;19;20023;-64
2022/03/28 02:42:45;;;;;;;18.15;12.73;;;;;;;4.49;74.18;101916.97;7395353;19;20462;-64
2022/03/28 02:45:20;;;;;;;22.05;13.10;;;;;;;4.46;74.34;101916.88;7394793;19;20027;-64
2022/03/28 02:47:48;;;;;;;19.88;13.27;;;;;;;4.43;74.26;101914.25;7394165;19;20481;-64
2022/03/28 02:50:19;;;;;;;22.10;13.85;;;;;;;4.40;74.24;101905.53;7393859;19;20014;-64
2022/03/28 02:52:48;;;;;;;24.50;14.43;;;;;;;4.40;74.64;101902.91;7394743;19;20144;-64
2022/03/28 02:55:17;;;;;;;21.35;13.73;;;;;;;4.39;74.42;101905.50;7395425;19;20391;-64
2022/03/28 02:57:45;;;;;;;22.33;14.30;;;;;;;4.39;74.65;101897.69;7393662;19;20366;-64
2022/03/28 03:00:14;;;;;;;24.38;13.82;;;;;;;4.35;74.64;101899.34;7395484;19;20427;-64
2022/03/28 03:02:44;;;;;;;28.73;18.70;;;;;;;4.34;74.89;101896.72;7393846;19;20022;-64
2022/03/28 03:05:14;;;;;;;19.30;13.82;;;;;;;4.31;75.05;101894.94;7394069;19;20018;-62
2022/03/28 03:07:44;;;;;;;23.90;16.05;;;;;;;4.30;75.41;101895.75;7393393;19;20489;-65
2022/03/28 03:10:12;;;;;;;22.35;14.25;;;;;;;4.28;75.55;101889.66;7396005;19;20023;-63
2022/03/28 03:12:41;;;;;;;21.75;14.82;;;;;;;4.27;75.45;101887.03;7395488;19;20015;-64
2022/03/28 03:15:09;;;;;;;23.10;15.38;;;;;;;4.25;75.78;101889.59;7395445;19;20018;-64
2022/03/28 03:17:38;;;;;;;23.98;16.02;;;;;;;4.22;76.53;101879.13;7394974;19;20018;-64
2022/03/28 03:20:08;;;;;;;23.08;15.18;;;;;;;4.19;76.43;101882.53;7393191;19;20481;-64
2022/03/28 03:22:36;;;;;;;23.17;15.60;;;;;;;4.16;76.36;101873.81;7393342;19;20035;-64
2022/03/28 03:25:07;;;;;;;22.92;15.15;;;;;;;4.14;76.43;101876.34;7392963;19;20366;-64
2022/03/28 03:27:38;;;;;;;30.00;19.88;;;;;;;4.13;76.79;101871.13;7395006;19;20014;-63
2022/03/28 03:30:09;;;;;;;23.40;15.20;;;;;;;4.11;76.67;101873.69;7393825;19;20022;-64
2022/03/28 03:32:38;;;;;;;26.30;16.30;;;;;;;4.10;76.61;101876.25;7394708;19;20463;-64
2022/03/28 03:35:07;;;;;;;23.58;16.00;;;;;;;4.10;76.63;101873.66;7392903;19;20023;-65
2022/03/28 03:37:35;;;;;;;24.23;16.70;;;;;;;4.06;77.08;101870.97;7394137;19;20026;-64
2022/03/28 03:40:08;;;;;;;24.20;15.90;;;;;;;4.05;77.30;101870.94;7394304;19;20041;-64
2022/03/28 03:42:36;;;;;;;24.98;16.17;;;;;;;4.04;77.39;101866.59;7394333;19;20035;-65
2022/03/28 03:45:05;;;;;;;27.73;17.58;;;;;;;4.02;77.53;101858.78;7392923;19;20079;-65
2022/03/28 03:47:33;;;;;;;25.15;16.67;;;;;;;4.00;77.91;101862.19;7393981;19;20041;-64
2022/03/28 03:50:01;;;;;;;24.10;17.02;;;;;;;3.98;77.92;101862.16;7395538;19;20027;-63
2022/03/28 03:52:30;;;;;;;26.10;16.80;;;;;;;3.96;77.76;101862.94;7401754;19;20071;-64
2022/03/28 03:54:58;;;;;;;41.08;25.83;;;;;;;3.95;78.23;101853.41;7401832;19;20014;-63
2022/03/28 03:57:29;;;;;;;27.35;17.45;;;;;;;3.89;78.41;101855.00;7401481;19;20035;-63
2022/03/28 03:59:57;;;;;;;26.38;16.20;;;;;;;3.86;78.18;101851.47;7401986;19;20028;-64
2022/03/28 04:02:25;;;;;;;28.35;18.00;;;;;;;3.81;78.76;101853.94;7398589;19;20018;-63
2022/03/28 04:04:53;;;;;;;25.90;17.17;;;;;;;3.77;79.36;101856.41;7398567;19;20026;-63
2022/03/28 04:07:21;;;;;;;31.30;17.42;;;;;;;3.72;79.48;101848.53;7398099;19;20018;-64
2022/03/28 04:09:49;;;;;;;30.25;16.85;;;;;;;3.70;79.56;101845.03;7398266;19;20031;-64
2022/03/28 04:12:17;;;;;;;22.85;15.60;;;;;;;3.66;79.30;101845.78;7397832;19;20018;-65
2022/03/28 04:14:48;;;;;;;26.45;16.88;;;;;;;3.64;79.18;101843.16;7400987;19;20011;-64
2022/03/28 04:17:16;;;;;;;26.80;16.88;;;;;;;3.63;79.07;101838.81;7397838;19;20481;-64
2022/03/28 04:19:44;;;;;;;25.70;16.95;;;;;;;3.60;79.67;101833.53;7397870;19;20036;-64
2022/03/28 04:22:12;;;;;;;28.77;18.48;;;;;;;3.58;79.62;101832.63;7397686;19;20026;-65
2022/03/28 04:24:41;;;;;;;27.33;17.75;;;;;;;3.56;79.65;101835.19;7398036;19;20022;-64
2022/03/28 04:27:09;;;;;;;30.13;18.60;;;;;;;3.54;79.74;101836.88;7397867;19;20024;-64
2022/03/28 04:29:37;;;;;;;43.13;24.90;;;;;;;3.52;79.35;101833.34;7398186;19;20035;-64
2022/03/28 04:32:08;;;;;;;40.53;24.23;;;;;;;3.49;79.76;101824.59;7400324;19;20015;-64
2022/03/28 04:34:37;;;;;;;29.70;18.95;;;;;;;3.48;79.92;101820.28;7399599;19;20035;-64
2022/03/28 04:37:05;;;;;;;29.08;18.90;;;;;;;3.46;79.44;101824.53;7400094;19;20031;-64
2022/03/28 04:39:33;;;;;;;27.95;18.17;;;;;;;3.45;79.92;101822.78;7397431;19;20022;-64
2022/03/28 04:42:01;;;;;;;32.10;19.13;;;;;;;3.42;80.15;101819.28;7397384;19;20036;-63
2022/03/28 04:44:29;;;;;;;26.98;18.08;;;;;;;3.42;80.15;101821.88;7397132;19;20023;-64
2022/03/28 04:46:57;;;;;;;28.88;19.02;;;;;;;3.40;79.92;101820.09;7396721;19;20023;-63
2022/03/28 04:49:28;;;;;;;27.52;18.50;;;;;;;3.40;80.19;101822.69;7396999;19;20031;-63
2022/03/28 04:51:56;;;;;;;30.23;18.50;;;;;;;3.37;80.14;101822.59;7399510;19;20022;-64
2022/03/28 04:54:24;;;;;;;31.13;18.50;;;;;;;3.35;79.86;101817.38;7399059;19;20031;-64
2022/03/28 04:56:53;;;;;;;29.95;20.55;;;;;;;3.34;79.90;101818.19;7397336;19;20531;-65
2022/03/28 04:59:21;;;;;;;35.38;19.95;;;;;;;3.32;79.95;101819.88;7397239;19;20018;-64
2022/03/28 05:01:49;;;;;;;27.02;18.10;;;;;;;3.30;79.84;101811.19;7394504;19;20039;-64
2022/03/28 05:04:17;;;;;;;30.23;19.00;;;;;;;3.32;79.97;101821.59;7397134;19;20031;-64
2022/03/28 05:06:48;;;;;;;33.05;20.55;;;;;;;3.30;80.15;101826.75;7395491;19;20035;-65
2022/03/28 05:09:16;;;;;;;36.20;22.92;;;;;;;3.29;79.94;101825.00;7394828;19;20022;-65
2022/03/28 05:11:44;;;;;;;31.90;20.45;;;;;;;3.27;79.93;101821.47;7396457;19;20018;-64
2022/03/28 05:14:12;;;;;;;35.55;22.33;;;;;;;3.26;79.90;101819.69;7397070;19;20035;-63
2022/03/28 05:16:41;;;;;;;38.60;24.15;;;;;;;3.24;80.26;101822.25;7395887;19;20572;-64
2022/03/28 05:19:09;;;;;;;34.50;21.63;;;;;;;3.23;80.32;101825.69;7396159;19;20014;-65
2022/03/28 05:21:37;;;;;;;35.08;21.73;;;;;;;3.22;80.96;101823.06;7396232;19;20326;-65
2022/03/28 05:24:08;;;;;;;38.47;22.85;;;;;;;3.20;81.80;101819.56;7395300;19;20026;-65
2022/03/28 05:26:36;;;;;;;37.00;22.85;;;;;;;3.14;81.22;101814.22;7395836;19;20506;-64
2022/03/28 05:29:04;;;;;;;41.50;24.23;;;;;;;3.16;81.34;101813.44;7396547;19;20018;-64
2022/03/28 05:31:32;;;;;;;38.28;24.45;;;;;;;3.18;81.37;101813.47;7396086;19;20028;-65
2022/03/28 05:34:01;;;;;;;44.72;26.30;;;;;;;3.19;81.45;101812.63;7397818;19;20015;-65
2022/03/28 05:36:29;;;;;;;43.88;27.23;;;;;;;3.20;81.35;101814.38;7396478;19;20023;-64
2022/03/28 05:38:58;;;;;;;39.13;25.13;;;;;;;3.23;81.13;101809.25;7396463;19;20045;-65
2022/03/28 05:41:28;;;;;;;38.65;25.13;;;;;;;3.25;81.21;101812.78;7395525;19;20094;-64
2022/03/28 05:43:56;;;;;;;42.13;25.10;;;;;;;3.28;81.18;101806.81;7396183;19;20029;-65
2022/03/28 05:46:25;;;;;;;41.78;26.73;;;;;;;3.31;81.20;101807.75;7396389;19;20031;-65
2022/03/28 05:49:00;;;;;;;38.60;26.20;;;;;;;3.34;81.19;101800.03;7396229;19;20031;-65
2022/03/28 05:51:28;;;;;;;43.55;26.73;;;;;;;3.37;81.12;101800.09;7395427;19;20481;-65
2022/03/28 05:53:56;;;;;;;40.90;26.02;;;;;;;3.41;81.14;101795.88;7395706;19;20039;-64
2022/03/28 05:56:24;;;;;;;108.00;59.88;;;;;;;3.45;81.40;101792.53;7397497;19;20018;-65
2022/03/28 05:58:55;;;;;;;45.13;28.45;;;;;;;3.48;81.26;101794.31;7396070;19;20086;-65
2022/03/28 06:01:23;;;;;;;46.28;26.92;;;;;;;3.53;81.39;101790.13;7395523;19;20023;-65
2022/03/28 06:03:52;;;;;;;43.05;27.10;;;;;;;3.57;81.95;101794.53;7394635;19;20485;-64
2022/03/28 06:06:20;;;;;;;48.17;27.35;;;;;;;3.61;81.70;101788.56;7394584;19;20485;-64
2022/03/28 06:08:48;;;;;;;46.13;27.40;;;;;;;3.65;82.02;101786.94;7395446;19;20018;-64
2022/03/28 06:11:17;;;;;;;43.55;28.30;;;;;;;3.70;82.31;101786.22;7394868;19;20411;-64
2022/03/28 06:13:45;;;;;;;44.40;29.17;;;;;;;3.73;82.23;101780.22;7392607;19;20022;-64
2022/03/28 06:16:16;;;;;;;46.85;27.58;;;;;;;3.80;82.14;101779.50;7394968;19;20022;-64
2022/03/28 06:18:44;;;;;;;46.10;27.67;;;;;;;3.86;82.05;101777.03;7395372;19;20014;-64
2022/03/28 06:21:13;;;;;;;46.92;28.30;;;;;;;3.92;82.24;101772.00;7395245;19;20371;-64
2022/03/28 06:23:41;;;;;;;45.00;27.25;;;;;;;3.98;82.25;101773.84;7394333;19;20023;-65
2022/03/28 06:26:10;;;;;;;49.92;30.10;;;;;;;4.05;82.18;101774.84;7394390;19;20018;-62
2022/03/28 06:28:39;;;;;;;48.60;27.00;;;;;;;4.12;82.13;101779.34;7394608;19;20022;-64
2022/03/28 06:31:07;;;;;;;43.55;26.63;;;;;;;4.20;82.16;101771.72;7396136;19;20019;-64
2022/03/28 06:33:38;;;;;;;42.10;26.05;;;;;;;4.28;82.27;101775.34;7394348;19;20019;-64
2022/03/28 06:36:07;;;;;;;38.67;24.50;;;;;;;4.37;82.29;101775.53;7394552;19;20392;-64
2022/03/28 06:38:35;;;;;;;42.03;25.65;;;;;;;4.47;82.43;101775.72;7394445;19;20103;-64
2022/03/28 06:41:04;;;;;;;43.95;25.88;;;;;;;4.57;82.27;101769.84;7393840;19;20015;-64
2022/03/28 06:43:32;;;;;;;44.28;26.63;;;;;;;4.67;82.19;101769.19;7395909;19;20035;-64
2022/03/28 06:46:01;;;;;;;44.28;28.55;;;;;;;4.77;82.28;101764.19;7396072;19;20035;-65
2022/03/28 06:48:30;;;;;;;47.85;27.08;;;;;;;4.86;82.20;101762.59;7393974;19;20019;-64
2022/03/28 06:51:00;;;;;;;43.13;26.80;;;;;;;4.98;81.98;101761.06;7394253;19;20027;-65
2022/03/28 06:53:28;;;;;;;43.75;27.13;;;;;;;5.08;81.99;101755.19;7394732;19;20078;-65
2022/03/28 06:55:57;;;;;;;40.92;24.75;;;;;;;5.18;82.04;101757.09;7397037;19;20031;-65
2022/03/28 06:58:25;;;;;;;37.30;23.27;;;;;;;5.29;81.78;101744.25;7393907;19;20041;-64
2022/03/28 07:00:53;;;;;;;38.53;22.75;;;;;;;5.38;82.04;101731.41;7394652;19;20399;-64
2022/03/28 07:03:21;;;;;;;37.20;21.27;;;;;;;5.53;81.87;101737.69;7395161;19;20352;-64
2022/03/28 07:05:49;;;;;;;37.17;20.60;;;;;;;5.65;81.76;101731.78;7395349;19;20018;-64
2022/03/28 07:08:21;;;;;;;41.13;21.75;;;;;;;5.77;82.71;101725.88;7393445;19;20018;-64
2022/03/28 07:10:49;;;;;;;33.95;20.42;;;;;;;5.90;81.47;101727.78;7393819;19;20026;-66
2022/03/28 07:13:17;;;;;;;44.53;20.38;;;;;;;6.02;81.61;101738.41;7393024;19;20045;-65
2022/03/28 07:15:45;;;;;;;33.00;20.48;;;;;;;6.13;81.20;101725.53;7393129;19;20026;-65
2022/03/28 07:18:13;;;;;;;35.15;19.25;;;;;;;6.24;81.01;101725.63;7393787;19;20011;-64
2022/03/28 07:20:43;;;;;;;33.00;19.52;;;;;;;6.34;81.54;101724.03;7393163;19;20022;-64
2022/03/28 07:23:13;;;;;;;45.60;20.38;;;;;;;6.47;81.42;101725.03;7393492;19;20481;-64
2022/03/28 07:25:43;;;;;;;39.30;20.40;;;;;;;6.58;81.44;101718.19;7391668;19;20512;-65
2022/03/28 07:28:13;;;;;;;35.28;18.35;;;;;;;6.73;81.86;101724.44;7393756;19;20015;-63
2022/03/28 07:30:42;;;;;;;34.25;18.70;;;;;;;6.86;81.49;101718.47;7392975;19;20022;-64
2022/03/28 07:33:11;;;;;;;33.30;17.83;;;;;;;6.95;80.84;101710.75;7392530;19;20018;-64
2022/03/28 07:35:40;;;;;;;35.95;18.90;;;;;;;7.11;80.48;101716.94;7392446;19;20018;-63
2022/03/28 07:38:10;;;;;;;39.55;17.25;;;;;;;7.23;80.36;101716.19;7393331;19;20031;-65
2022/03/28 07:40:40;;;;;;;32.50;16.77;;;;;;;7.35;80.23;101712.78;7393110;19;20041;-65
2022/03/28 07:43:12;;;;;;;29.48;16.35;;;;;;;7.47;79.72;101717.25;7392892;19;20041;-66
2022/03/28 07:45:40;;;;;;;31.45;14.50;;;;;;;7.58;79.83;101704.22;7392350;19;20041;-65
2022/03/28 07:48:09;;;;;;;33.65;16.05;;;;;;;7.71;79.58;101711.28;7392843;19;20022;-65
2022/03/28 07:50:44;;;;;;;33.25;15.25;;;;;;;7.81;79.22;101709.59;7391222;19;20481;-65
2022/03/28 07:53:13;;;;;;;30.92;14.88;;;;;;;7.93;79.28;101706.16;7394946;19;20015;-65
2022/03/28 07:55:41;;;;;;;29.00;15.20;;;;;;;8.05;78.63;101702.72;7392512;19;20035;-65
2022/03/28 07:58:12;;;;;;;30.95;14.30;;;;;;;8.14;78.47;101695.78;7391743;19;20481;-64
2022/03/28 08:00:41;;;;;;;29.25;14.00;;;;;;;8.27;78.09;101685.38;7392427;19;20018;-64
2022/03/28 08:03:09;;;;;;;31.45;14.80;;;;;;;8.37;77.58;101681.06;7391722;19;20023;-64
2022/03/28 08:05:37;;;;;;;34.45;15.23;;;;;;;8.46;77.56;101676.72;7392248;19;20034;-65
2022/03/28 08:08:07;;;;;;;25.58;13.70;;;;;;;8.57;77.16;101683.75;7391863;19;20019;-64
2022/03/28 08:10:35;;;;;;;32.03;14.23;;;;;;;8.69;76.75;101682.88;7391917;19;20044;-65
2022/03/28 08:13:03;;;;;;;25.13;13.05;;;;;;;8.78;76.48;101672.41;7391848;19;20019;-65
2022/03/28 08:15:35;;;;;;;30.50;13.32;;;;;;;8.90;76.07;101661.97;7394396;19;20034;-65
2022/03/28 08:18:03;;;;;;;31.42;14.27;;;;;;;9.01;75.75;101661.09;7391796;19;20078;-65
2022/03/28 08:20:31;;;;;;;30.75;14.63;;;;;;;9.10;75.16;101659.34;7393232;19;20011;-65
2022/03/28 08:23:00;;;;;;;27.65;13.07;;;;;;;9.21;74.79;101642.75;7392607;19;20045;-65
2022/03/28 08:25:30;;;;;;;32.13;14.27;;;;;;;9.30;74.62;101647.94;7389983;19;20011;-65
2022/03/28 08:27:58;;;;;;;26.33;12.52;;;;;;;9.42;74.14;101647.06;7391160;19;20042;-65
2022/03/28 08:30:27;;;;;;;35.08;14.52;;;;;;;9.53;73.88;101640.06;7390604;19;20018;-65
2022/03/28 08:32:57;;;;;;;31.33;13.73;;;;;;;9.62;73.46;101637.38;7392965;19;20022;-65
2022/03/28 08:35:27;;;;;;;29.77;13.70;;;;;;;9.72;73.21;101642.63;7392831;19;20027;-65
2022/03/28 08:37:55;;;;;;;30.38;13.85;;;;;;;9.81;72.84;101629.47;7398611;19;20028;-64
2022/03/28 08:40:25;;;;;;;31.00;14.45;;;;;;;9.89;72.27;101632.06;7397498;19;20035;-64
2022/03/28 08:42:53;;;;;;;28.38;14.95;;;;;;;9.98;71.78;101632.00;7400336;19;20014;-65
2022/03/28 08:45:21;;;;;;;28.67;15.07;;;;;;;10.08;71.41;101630.19;7397280;19;20022;-65
2022/03/28 08:47:51;;;;;;;28.73;14.18;;;;;;;10.16;70.99;101627.53;7399305;19;20019;-65
2022/03/28 08:50:22;;;;;;;30.90;14.23;;;;;;;10.28;70.56;101624.84;7398692;19;20014;-64
2022/03/28 08:52:50;;;;;;;25.33;14.35;;;;;;;10.38;70.04;101613.44;7397003;19;20477;-65
2022/03/28 08:55:19;;;;;;;25.25;14.52;;;;;;;10.50;69.50;101612.50;7397039;19;20022;-63
2022/03/28 08:57:50;;;;;;;28.45;14.80;;;;;;;10.59;69.19;101601.91;7399265;19;20037;-64
2022/03/28 09:00:18;;;;;;;31.13;13.90;;;;;;;10.70;68.83;101598.31;7397168;19;20396;-63
2022/03/28 09:02:50;;;;;;;24.83;13.02;;;;;;;10.79;68.12;101602.63;7400219;19;20035;-64
2022/03/28 09:05:30;;;;;;;28.70;14.50;;;;;;;10.87;67.83;101595.56;7398178;19;20500;-64
2022/03/28 09:07:58;;;;;;;28.27;13.98;;;;;;;10.97;66.27;101606.81;7398576;19;20035;-63
2022/03/28 09:10:32;;;;;;;24.88;12.68;;;;;;;11.06;65.06;101609.38;7399145;19;20019;-64
2022/03/28 09:13:02;;;;;;;24.02;11.80;;;;;;;11.15;64.14;101601.41;7399635;19;20045;-65
2022/03/28 09:15:48;;;;;;;23.90;12.27;;;;;;;11.27;64.04;101596.91;7396309;19;20122;-64
2022/03/28 09:18:24;;;;;;;23.52;11.52;;;;;;;11.35;63.08;101590.69;7397694;19;20019;-65
2022/03/28 09:20:57;;;;;;;26.77;12.68;;;;;;;11.42;63.84;101588.84;7396293;19;20026;-65
2022/03/28 09:23:40;;;;;;;27.13;12.18;;;;;;;11.50;62.90;101589.63;7397045;19;20053;-65
2022/03/28 09:26:11;;;;;;;23.23;11.63;;;;;;;11.57;63.26;101582.53;7396832;19;20014;-65
2022/03/28 09:28:46;;;;;;;23.85;12.02;;;;;;;11.63;62.65;101581.59;7396021;19;20588;-65
2022/03/28 09:31:25;;;;;;;19.90;10.93;;;;;;;11.72;61.01;101579.72;7395932;19;20023;-64
2022/03/28 09:33:59;;;;;;;19.88;11.55;;;;;;;11.80;62.41;101584.00;7397526;19;20647;-65
2022/03/28 09:36:44;;;;;;;24.45;12.77;;;;;;;11.89;59.19;101562.81;7395709;19;20095;-65
2022/03/28 09:39:16;;;;;;;19.38;10.93;;;;;;;11.96;61.21;101564.53;7395116;19;20485;-63
2022/03/28 09:41:45;;;;;;;23.75;11.35;;;;;;;12.03;60.76;101555.66;7398235;19;20025;-65
2022/03/28 09:44:13;;;;;;;21.10;12.38;;;;;;;12.10;60.77;101555.56;7394936;19;20019;-65
2022/03/28 09:46:42;;;;;;;25.80;11.07;;;;;;;12.19;60.01;101544.91;7397088;19;20035;-65
2022/03/28 09:49:11;;;;;;;25.35;12.05;;;;;;;12.28;58.76;101547.38;7395913;19;20037;-64
2022/03/28 09:51:42;;;;;;;21.88;11.32;;;;;;;12.38;58.38;101551.63;7395503;19;20014;-65
2022/03/28 09:54:25;;;;;;;19.48;10.38;;;;;;;12.46;56.86;101537.44;7397577;19;20074;-63
2022/03/28 09:57:09;;;;;;;22.15;12.10;;;;;;;12.56;57.02;101541.66;7395043;19;20018;-65
2022/03/28 09:59:41;;;;;;;20.15;10.23;;;;;;;12.63;57.00;101531.91;7395254;19;20022;-65
2022/03/28 10:02:18;;;;;;;22.25;10.55;;;;;;;12.72;55.05;101542.25;7394850;19;20057;-65
2022/03/28 10:04:49;;;;;;;21.65;11.02;;;;;;;12.81;56.44;101528.91;7394937;19;20023;-64
2022/03/28 10:07:21;;;;;;;20.02;9.95;;;;;;;12.88;55.67;101532.31;7397028;19;20018;-64
2022/03/28 10:09:50;;;;;;;17.55;8.98;;;;;;;12.95;52.70;101515.47;7395291;19;20035;-64
2022/03/28 10:12:20;;;;;;;21.08;10.60;;;;;;;13.01;54.13;101518.00;7394848;19;20045;-65
2022/03/28 10:15:01;;;;;;;19.23;9.60;;;;;;;13.10;52.39;101516.94;7397385;19;20015;-66
2022/03/28 10:17:31;;;;;;;16.92;8.25;;;;;;;13.18;49.56;101509.78;7395357;19;20014;-66
2022/03/28 10:20:02;;;;;;;17.40;9.27;;;;;;;13.25;52.05;101507.03;7394672;19;20405;-65
2022/03/28 10:22:37;;;;;;;21.38;9.45;;;;;;;13.29;50.30;101501.63;7395427;19;20018;-65
2022/03/28 10:25:11;;;;;;;20.05;8.73;;;;;;;13.37;50.60;101501.53;7395057;19;20477;-67
2022/03/28 10:27:40;;;;;;;13.82;8.63;;;;;;;13.46;47.57;101503.09;7394558;19;20018;-65
2022/03/28 10:30:13;;;;;;;17.35;7.90;;;;;;;13.56;48.08;101495.84;7394671;19;20031;-66
2022/03/28 10:32:41;;;;;;;15.27;8.07;;;;;;;13.65;48.27;101506.19;7396614;19;20015;-65
2022/03/28 10:35:10;;;;;;;16.80;8.27;;;;;;;13.72;49.33;101486.69;7395568;19;20385;-65
2022/03/28 10:37:44;;;;;;;15.52;8.27;;;;;;;13.76;45.35;101490.13;7395950;19;20015;-65
2022/03/28 10:40:24;;;;;;;16.33;7.53;;;;;;;13.83;45.07;101489.06;7396671;19;20036;-66
2022/03/28 10:42:55;;;;;;;20.35;8.63;;;;;;;13.89;45.45;101488.94;7396119;19;20481;-65
2022/03/28 10:45:24;;;;;;;18.05;8.68;;;;;;;13.92;45.23;101485.34;7394857;19;20022;-67
2022/03/28 10:47:53;;;;;;;14.90;8.57;;;;;;;13.98;45.24;101491.34;7395323;19;20473;-65
2022/03/28 10:50:24;;;;;;;20.75;8.15;;;;;;;14.04;44.97;101466.59;7394036;19;20018;-66
2022/03/28 10:53:13;;;;;;;18.42;9.18;;;;;;;14.09;44.42;101472.63;7394524;19;20019;-66
2022/03/28 10:55:47;;;;;;;14.80;7.93;;;;;;;14.14;43.09;101461.94;7395521;19;20034;-67
2022/03/28 10:58:21;;;;;;;14.80;7.10;;;;;;;14.20;43.17;101455.66;7394625;19;20022;-67
2022/03/28 11:01:21;;;;;;;13.90;6.43;;;;;;;14.28;41.80;101469.50;7394599;19;20019;-66
2022/03/28 11:03:53;;;;;;;13.13;6.72;;;;;;;14.36;40.35;101461.41;7395746;19;20045;-66
2022/03/28 11:06:23;;;;;;;10.70;6.13;;;;;;;14.41;42.47;101447.16;7394006;19;20018;-66
2022/03/28 11:09:03;;;;;;;10.18;5.45;;;;;;;14.44;37.56;101433.88;7393354;19;20019;-66
2022/03/28 11:11:33;;;;;;;12.13;6.05;;;;;;;14.57;39.78;101438.81;7393740;19;20047;-65
2022/03/28 11:14:04;;;;;;;12.15;6.57;;;;;;;14.62;40.15;101434.28;7395050;19;20011;-66
2022/03/28 11:16:44;;;;;;;14.38;7.43;;;;;;;14.70;40.29;101434.09;7395149;19;20094;-65
2022/03/28 11:19:23;;;;;;;14.52;6.95;;;;;;;14.76;39.26;101424.25;7392950;19;20018;-64
2022/03/28 11:22:02;;;;;;;12.38;5.82;;;;;;;14.79;38.40;101418.88;7392472;19;20019;-66
2022/03/28 11:24:51;;;;;;;13.48;6.40;;;;;;;14.91;38.44;101414.13;7392252;19;20045;-67
2022/03/28 11:27:21;;;;;;;11.63;6.22;;;;;;;14.96;40.16;101412.22;7390919;19;20489;-66
2022/03/28 11:29:50;;;;;;;12.85;6.55;;;;;;;15.02;40.51;101408.56;7391848;19;20022;-66